createdAt,value
2018-03-24T00:00:27.286Z,96998.61
2018-03-24T00:02:54.898Z,97001.12
2018-03-24T00:05:22.394Z,97002.14
2018-03-24T00:07:49.827Z,96999.02
2018-03-24T00:10:17.428Z,96993.10
2018-03-24T00:12:44.947Z,96994.45
2018-03-24T00:15:12.399Z,96988.17
2018-03-24T00:17:39.983Z,96983.67
2018-03-24T00:20:07.476Z,96977.66
2018-03-24T00:22:34.975Z,96989.66
2018-03-24T00:25:02.427Z,96982.13
2018-03-24T00:27:30.050Z,96973.36
2018-03-24T00:29:57.561Z,96979.72
2018-03-24T00:39:23.080Z,96975.16
2018-03-24T00:41:50.538Z,96972.73
2018-03-24T00:44:17.984Z,96974.30
2018-03-24T00:46:45.474Z,96970.68
2018-03-24T00:49:12.942Z,96966.52
2018-03-24T00:51:40.383Z,96970.28
2018-03-24T00:54:08.998Z,96967.26
2018-03-24T00:56:36.462Z,96966.83
2018-03-24T00:59:03.957Z,96966.16
2018-03-24T01:01:31.402Z,96960.27
2018-03-24T01:03:58.886Z,96961.92
2018-03-24T01:06:26.364Z,96955.91
2018-03-24T01:08:53.840Z,96956.28
2018-03-24T01:11:21.298Z,96948.54
2018-03-24T01:13:48.746Z,96946.16
2018-03-24T01:16:16.188Z,96942.05
2018-03-24T01:18:43.634Z,96939.53
2018-03-24T01:21:11.208Z,96941.95
2018-03-24T01:23:38.764Z,96934.41
2018-03-24T01:26:06.282Z,96932.33
2018-03-24T01:28:33.728Z,96936.31
2018-03-24T01:31:01.177Z,96931.67
2018-03-24T01:33:28.711Z,96932.20
2018-03-24T01:35:56.160Z,96928.77
2018-03-24T01:38:23.597Z,96923.30
2018-03-24T01:40:51.084Z,96924.98
2018-03-24T01:43:18.544Z,96929.69
2018-03-24T01:45:45.986Z,96922.39
2018-03-24T01:48:13.445Z,96916.99
2018-03-24T01:50:41.003Z,96914.48
2018-03-24T01:53:08.446Z,96912.83
2018-03-24T01:55:36.037Z,96909.51
2018-03-24T01:58:03.566Z,96910.33
2018-03-24T02:00:31.147Z,96903.07
2018-03-24T02:02:58.582Z,96905.23
2018-03-24T02:05:26.092Z,96900.67
2018-03-24T02:07:53.555Z,96894.11
2018-03-24T02:10:21.073Z,96895.84
2018-03-24T02:12:48.510Z,96899.69
2018-03-24T02:15:16.026Z,96893.68
2018-03-24T02:17:43.495Z,96885.08
2018-03-24T02:20:10.938Z,96886.39
2018-03-24T02:22:38.418Z,96888.59
2018-03-24T02:25:05.897Z,96878.47
2018-03-24T02:27:33.412Z,96879.46
2018-03-24T02:30:00.919Z,96877.31
2018-03-24T02:32:28.418Z,96872.20
2018-03-24T02:34:55.865Z,96865.77
2018-03-24T02:37:23.309Z,96878.28
2018-03-24T02:39:50.843Z,96870.08
2018-03-24T02:42:18.378Z,96864.18
2018-03-24T02:44:45.819Z,96870.70
2018-03-24T02:47:13.271Z,96865.16
2018-03-24T02:49:40.757Z,96858.49
2018-03-24T02:52:08.218Z,96862.09
2018-03-24T02:54:35.702Z,96866.89
2018-03-24T02:57:03.258Z,96868.66
2018-03-24T02:59:30.740Z,96865.79
2018-03-24T03:01:58.202Z,96864.30
2018-03-24T03:04:25.655Z,96863.52
2018-03-24T03:06:53.108Z,96862.77
2018-03-24T03:09:20.563Z,96860.31
2018-03-24T03:11:48.030Z,96854.78
2018-03-24T03:14:15.518Z,96860.53
2018-03-24T03:16:42.954Z,96853.67
2018-03-24T03:19:10.407Z,96850.24
2018-03-24T03:21:49.750Z,96840.02
2018-03-24T03:24:17.212Z,96844.79
2018-03-24T03:26:44.905Z,96839.20
2018-03-24T03:29:12.355Z,96838.82
2018-03-24T03:31:39.850Z,96830.30
2018-03-24T03:34:07.337Z,96832.95
2018-03-24T03:36:34.896Z,96832.19
2018-03-24T03:39:02.394Z,96830.13
2018-03-24T03:41:29.920Z,96835.26
2018-03-24T03:43:57.399Z,96831.40
2018-03-24T03:46:24.888Z,96828.40
2018-03-24T03:48:52.389Z,96824.70
2018-03-24T03:51:19.856Z,96830.70
2018-03-24T03:53:47.502Z,96831.47
2018-03-24T03:56:14.982Z,96826.85
2018-03-24T03:58:42.439Z,96824.66
2018-03-24T04:01:10.023Z,96820.91
2018-03-24T04:03:37.517Z,96824.66
2018-03-24T04:06:04.966Z,96819.12
2018-03-24T04:08:32.427Z,96819.02
2018-03-24T04:11:00.023Z,96819.81
2018-03-24T04:13:27.463Z,96816.77
2018-03-24T04:15:54.928Z,96816.06
2018-03-24T04:18:22.376Z,96818.64
2018-03-24T04:20:49.871Z,96812.59
2018-03-24T04:23:17.345Z,96807.50
2018-03-24T04:25:44.957Z,96809.22
2018-03-24T04:28:12.403Z,96808.41
2018-03-24T04:30:40.003Z,96804.00
2018-03-24T04:33:07.465Z,96806.20
2018-03-24T04:35:34.948Z,96805.28
2018-03-24T04:38:02.423Z,96802.59
2018-03-24T04:40:29.923Z,96797.15
2018-03-24T04:42:57.376Z,96801.05
2018-03-24T04:45:24.892Z,96799.77
2018-03-24T04:47:52.953Z,96801.53
2018-03-24T04:50:20.410Z,96804.61
2018-03-24T04:52:47.879Z,96802.78
2018-03-24T04:55:15.387Z,96807.53
2018-03-24T04:57:43.103Z,96807.93
2018-03-24T05:00:10.568Z,96808.94
2018-03-24T05:02:38.006Z,96805.22
2018-03-24T05:05:05.526Z,96808.31
2018-03-24T05:07:32.992Z,96801.68
2018-03-24T05:10:00.509Z,96806.61
2018-03-24T05:12:27.946Z,96800.83
2018-03-24T05:14:55.425Z,96797.89
2018-03-24T05:17:22.905Z,96796.22
2018-03-24T05:19:50.345Z,96793.59
2018-03-24T05:22:18.658Z,96797.45
2018-03-24T05:24:46.243Z,96795.36
2018-03-24T05:27:13.750Z,96797.34
2018-03-24T05:29:41.239Z,96793.26
2018-03-24T05:32:08.698Z,96797.09
2018-03-24T05:34:36.152Z,96799.54
2018-03-24T05:37:03.588Z,96799.37
2018-03-24T05:39:31.077Z,96800.20
2018-03-24T05:41:58.536Z,96800.09
2018-03-24T05:44:25.989Z,96799.91
2018-03-24T05:46:53.656Z,96803.17
2018-03-24T05:49:21.123Z,96798.39
2018-03-24T05:51:49.917Z,96799.18
2018-03-24T05:54:17.405Z,96807.58
2018-03-24T05:56:44.949Z,96809.91
2018-03-24T05:59:12.410Z,96811.08
2018-03-24T06:01:39.905Z,96808.67
2018-03-24T06:04:07.358Z,96814.50
2018-03-24T06:06:35.112Z,96810.14
2018-03-24T06:09:03.851Z,96814.30
2018-03-24T06:11:31.612Z,96812.02
2018-03-24T06:13:59.103Z,96809.24
2018-03-24T06:16:26.560Z,96818.06
2018-03-24T06:18:54.006Z,96804.98
2018-03-24T06:21:21.465Z,96805.13
2018-03-24T06:23:48.946Z,96813.88
2018-03-24T06:26:16.415Z,96815.75
2018-03-24T06:28:43.903Z,96818.97
2018-03-24T06:31:26.885Z,96815.20
2018-03-24T06:33:54.351Z,96809.11
2018-03-24T06:36:25.447Z,96809.64
2018-03-24T06:38:52.936Z,96815.72
2018-03-24T06:41:20.422Z,96811.08
2018-03-24T06:43:47.881Z,96815.13
2018-03-24T06:46:15.343Z,96814.23
2018-03-24T06:48:42.779Z,96818.92
2018-03-24T06:51:10.230Z,96818.38
2018-03-24T06:53:37.857Z,96810.45
2018-03-24T06:56:05.316Z,96820.51
2018-03-24T06:58:32.819Z,96817.14
2018-03-24T07:01:00.264Z,96825.50
2018-03-24T07:03:27.719Z,96824.50
2018-03-24T07:05:55.211Z,96821.38
2018-03-24T07:08:22.676Z,96826.45
2018-03-24T07:10:50.131Z,96823.14
2018-03-24T07:13:17.584Z,96819.62
2018-03-24T07:15:45.054Z,96820.02
2018-03-24T07:18:12.775Z,96813.00
2018-03-24T07:20:41.015Z,96820.94
2018-03-24T07:23:08.543Z,96815.50
2018-03-24T07:25:36.046Z,96815.64
2018-03-24T07:28:03.599Z,96818.86
2018-03-24T07:30:31.390Z,96820.80
2018-03-24T07:32:58.848Z,96826.39
2018-03-24T07:35:32.139Z,96822.42
2018-03-24T07:37:59.645Z,96825.27
2018-03-24T07:40:27.255Z,96826.61
2018-03-24T07:42:54.766Z,96827.91
2018-03-24T07:45:23.758Z,96822.75
2018-03-24T07:48:16.529Z,96823.36
2018-03-24T07:50:49.905Z,96824.30
2018-03-24T07:53:18.041Z,96820.97
2018-03-24T07:55:45.489Z,96826.89
2018-03-24T07:58:12.942Z,96828.75
2018-03-24T08:00:40.387Z,96829.98
2018-03-24T08:03:07.849Z,96825.81
2018-03-24T08:05:35.407Z,96831.83
2018-03-24T08:08:02.909Z,96827.48
2018-03-24T08:10:30.374Z,96831.95
2018-03-24T08:12:57.874Z,96831.81
2018-03-24T08:15:25.383Z,96829.48
2018-03-24T08:17:52.881Z,96837.92
2018-03-24T08:20:20.354Z,96835.91
2018-03-24T08:22:47.829Z,96829.95
2018-03-24T08:25:15.310Z,96828.52
2018-03-24T08:27:42.773Z,96833.25
2018-03-24T08:30:10.586Z,96830.51
2018-03-24T08:32:38.082Z,96834.26
2018-03-24T08:35:05.554Z,96832.47
2018-03-24T08:37:33.059Z,96842.81
2018-03-24T08:40:00.551Z,96843.32
2018-03-24T08:42:28.024Z,96839.44
2018-03-24T08:44:55.482Z,96842.16
2018-03-24T08:47:22.962Z,96842.42
2018-03-24T08:49:50.420Z,96838.25
2018-03-24T08:52:17.889Z,96843.70
2018-03-24T08:54:45.345Z,96844.67
2018-03-24T08:57:12.860Z,96840.07
2018-03-24T08:59:40.459Z,96848.59
2018-03-24T09:02:07.914Z,96841.44
2018-03-24T09:04:36.576Z,96841.61
2018-03-24T09:07:04.018Z,96845.67
2018-03-24T09:09:31.506Z,96834.36
2018-03-24T09:11:58.972Z,96839.67
2018-03-24T09:14:26.461Z,96842.98
2018-03-24T09:16:54.134Z,96841.36
2018-03-24T09:19:21.752Z,96837.77
2018-03-24T09:21:49.201Z,96842.81
2018-03-24T09:24:17.599Z,96835.08
2018-03-24T09:26:45.183Z,96831.02
2018-03-24T09:29:12.622Z,96829.98
2018-03-24T09:31:40.190Z,96837.44
2018-03-24T09:34:07.664Z,96839.18
2018-03-24T09:36:35.144Z,96835.10
2018-03-24T09:39:02.601Z,96836.96
2018-03-24T09:41:30.070Z,96828.92
2018-03-24T09:43:57.530Z,96836.14
2018-03-24T09:46:24.998Z,96836.34
2018-03-24T09:48:52.443Z,96833.13
2018-03-24T09:51:19.941Z,96838.98
2018-03-24T09:53:47.395Z,96835.47
2018-03-24T09:56:14.830Z,96842.45
2018-03-24T09:58:42.313Z,96837.25
2018-03-24T10:01:09.822Z,96832.33
2018-03-24T10:03:37.323Z,96844.16
2018-03-24T10:06:05.540Z,96839.09
2018-03-24T10:08:33.020Z,96842.41
2018-03-24T10:11:00.487Z,96845.89
2018-03-24T10:13:27.941Z,96842.09
2018-03-24T10:15:55.440Z,96834.58
2018-03-24T10:18:22.993Z,96845.16
2018-03-24T10:24:13.251Z,96833.91
2018-03-24T10:26:40.713Z,96836.52
2018-03-24T10:29:08.167Z,96834.98
2018-03-24T10:31:35.617Z,96830.22
2018-03-24T10:34:03.060Z,96828.88
2018-03-24T10:36:30.512Z,96828.58
2018-03-24T10:38:57.966Z,96830.70
2018-03-24T10:41:25.435Z,96829.91
2018-03-24T10:43:52.891Z,96825.41
2018-03-24T10:46:20.330Z,96833.34
2018-03-24T10:48:47.787Z,96827.70
2018-03-24T10:51:15.225Z,96832.81
2018-03-24T10:53:42.690Z,96836.56
2018-03-24T10:56:10.128Z,96833.92
2018-03-24T10:58:37.632Z,96837.13
2018-03-24T11:01:10.627Z,96836.02
2018-03-24T11:03:38.967Z,96838.34
2018-03-24T11:06:06.409Z,96831.22
2018-03-24T11:08:33.841Z,96831.41
2018-03-24T11:11:01.398Z,96828.63
2018-03-24T11:13:28.878Z,96838.16
2018-03-24T11:15:56.338Z,96832.92
2018-03-24T11:18:23.802Z,96834.28
2018-03-24T11:20:51.259Z,96839.59
2018-03-24T11:23:18.699Z,96837.56
2018-03-24T11:25:46.161Z,96829.52
2018-03-24T11:28:13.618Z,96832.81
2018-03-24T11:30:41.250Z,96828.38
2018-03-24T11:33:08.821Z,96821.05
2018-03-24T11:35:36.369Z,96820.02
2018-03-24T11:38:03.843Z,96819.69
2018-03-24T11:40:31.290Z,96825.70
2018-03-24T11:42:58.767Z,96818.58
2018-03-24T11:45:26.216Z,96812.70
2018-03-24T11:47:53.673Z,96814.17
2018-03-24T11:50:21.133Z,96811.11
2018-03-24T11:52:48.592Z,96810.93
2018-03-24T11:55:16.065Z,96805.91
2018-03-24T11:57:43.940Z,96808.17
2018-03-24T12:00:11.782Z,96803.14
2018-03-24T12:02:39.424Z,96806.52
2018-03-24T12:05:07.145Z,96805.52
2018-03-24T12:07:34.981Z,96807.05
2018-03-24T12:10:02.463Z,96804.14
2018-03-24T12:12:30.430Z,96803.40
2018-03-24T12:14:58.683Z,96808.44
2018-03-24T12:17:27.093Z,96799.34
2018-03-24T12:19:54.772Z,96787.66
2018-03-24T12:22:22.457Z,96793.39
2018-03-24T12:24:50.026Z,96786.94
2018-03-24T12:27:17.660Z,96787.34
2018-03-24T12:29:45.519Z,96781.86
2018-03-24T12:32:13.838Z,96784.47
2018-03-24T12:34:42.930Z,96784.61
2018-03-24T12:37:10.808Z,96782.70
2018-03-24T12:39:38.587Z,96781.35
2018-03-24T12:42:06.232Z,96776.31
2018-03-24T12:44:33.849Z,96771.45
2018-03-24T12:47:01.429Z,96777.83
2018-03-24T12:49:28.899Z,96773.08
2018-03-24T12:51:56.535Z,96771.84
2018-03-24T12:54:24.095Z,96768.33
2018-03-24T12:56:51.928Z,96771.38
2018-03-24T12:59:20.893Z,96767.73
2018-03-24T13:01:48.482Z,96769.77
2018-03-24T13:04:16.219Z,96769.96
2018-03-24T13:06:44.378Z,96771.27
2018-03-24T13:09:12.103Z,96772.73
2018-03-24T13:11:40.289Z,96778.23
2018-03-24T13:14:08.004Z,96771.80
2018-03-24T13:16:35.495Z,96779.20
2018-03-24T13:19:02.933Z,96770.66
2018-03-24T13:21:30.392Z,96783.54
2018-03-24T13:23:57.869Z,96773.66
2018-03-24T13:26:25.490Z,96776.33
2018-03-24T13:28:52.942Z,96774.01
2018-03-24T13:31:20.394Z,96779.50
2018-03-24T13:33:47.913Z,96780.89
2018-03-24T13:36:15.543Z,96779.30
2018-03-24T13:38:43.467Z,96780.14
2018-03-24T13:41:11.335Z,96776.63
2018-03-24T13:43:39.185Z,96773.87
2018-03-24T13:46:06.777Z,96780.62
2018-03-24T13:48:34.626Z,96775.38
2018-03-24T13:51:10.522Z,96772.38
2018-03-24T13:53:38.194Z,96773.19
2018-03-24T13:56:05.948Z,96774.65
2018-03-24T13:58:33.630Z,96771.03
2018-03-24T14:01:01.308Z,96773.98
2018-03-24T14:03:28.834Z,96774.75
2018-03-24T14:05:57.317Z,96769.78
2018-03-24T14:08:24.894Z,96764.08
2018-03-24T14:10:52.734Z,96770.97
2018-03-24T14:13:20.560Z,96769.87
2018-03-24T14:15:48.803Z,96772.34
2018-03-24T14:18:16.494Z,96772.47
2018-03-24T14:20:44.116Z,96778.84
2018-03-24T14:23:11.779Z,96769.87
2018-03-24T14:25:39.584Z,96771.19
2018-03-24T14:28:07.160Z,96769.63
2018-03-24T14:30:34.734Z,96775.38
2018-03-24T14:33:02.392Z,96774.66
2018-03-24T14:35:30.602Z,96769.44
2018-03-24T14:37:58.895Z,96762.73
2018-03-24T14:43:04.955Z,96770.95
2018-03-24T14:45:32.454Z,96770.34
2018-03-24T14:47:59.931Z,96768.97
2018-03-24T14:50:27.407Z,96769.63
2018-03-24T14:52:54.861Z,96771.34
2018-03-24T14:55:22.351Z,96765.38
2018-03-24T14:57:49.813Z,96768.29
2018-03-24T15:00:17.263Z,96769.89
2018-03-24T15:02:45.045Z,96766.94
2018-03-24T15:05:12.543Z,96766.02
2018-03-24T15:07:40.085Z,96769.90
2018-03-24T15:10:07.567Z,96776.23
2018-03-24T15:12:35.057Z,96772.23
2018-03-24T15:15:02.511Z,96771.69
2018-03-24T15:17:30.100Z,96776.08
2018-03-24T15:19:57.566Z,96772.58
2018-03-24T15:22:25.107Z,96775.27
2018-03-24T15:24:52.590Z,96779.05
2018-03-24T15:27:20.061Z,96773.53
2018-03-24T15:32:52.305Z,96773.93
2018-03-24T15:35:33.678Z,96772.14
2018-03-24T15:38:01.150Z,96773.93
2018-03-24T15:40:28.603Z,96771.59
2018-03-24T15:42:56.162Z,96773.12
2018-03-24T15:45:24.478Z,96777.61
2018-03-24T15:47:52.335Z,96775.08
2018-03-24T15:50:19.790Z,96778.95
2018-03-24T15:52:47.268Z,96769.90
2018-03-24T15:55:14.743Z,96777.41
2018-03-24T15:57:42.359Z,96776.77
2018-03-24T16:00:09.814Z,96778.72
2018-03-24T16:02:37.262Z,96783.08
2018-03-24T16:05:04.722Z,96786.14
2018-03-24T16:07:32.175Z,96781.12
2018-03-24T16:09:59.662Z,96782.83
2018-03-24T16:12:27.135Z,96781.89
2018-03-24T16:14:54.636Z,96779.77
2018-03-24T16:17:22.186Z,96796.50
2018-03-24T16:19:49.648Z,96780.27
2018-03-24T16:22:17.187Z,96783.98
2018-03-24T16:24:44.665Z,96786.16
2018-03-24T16:27:12.126Z,96780.61
2018-03-24T16:29:39.803Z,96785.19
2018-03-24T16:32:07.342Z,96794.66
2018-03-24T16:34:35.823Z,96791.66
2018-03-24T16:37:03.326Z,96796.11
2018-03-24T16:39:30.766Z,96796.33
2018-03-24T16:41:58.281Z,96797.13
2018-03-24T16:44:25.772Z,96801.05
2018-03-24T16:46:53.215Z,96804.11
2018-03-24T16:49:20.689Z,96804.94
2018-03-24T16:51:48.186Z,96803.75
2018-03-24T16:54:15.660Z,96806.07
2018-03-24T16:56:43.106Z,96814.70
2018-03-24T16:59:10.624Z,96818.58
2018-03-24T17:01:38.208Z,96818.94
2018-03-24T17:04:05.824Z,96822.73
2018-03-24T17:06:33.267Z,96826.51
2018-03-24T17:09:00.716Z,96828.53
2018-03-24T17:11:28.211Z,96830.98
2018-03-24T17:13:57.222Z,96839.31
2018-03-24T17:16:24.964Z,96838.77
2018-03-24T17:18:52.545Z,96839.73
2018-03-24T17:21:20.104Z,96841.93
2018-03-24T17:23:47.765Z,96838.78
2018-03-24T17:26:15.280Z,96844.75
2018-03-24T17:28:42.784Z,96850.52
2018-03-24T17:31:10.859Z,96852.83
2018-03-24T17:33:38.692Z,96855.92
2018-03-24T17:36:07.102Z,96860.91
2018-03-24T17:38:35.246Z,96855.88
2018-03-24T17:41:02.899Z,96866.82
2018-03-24T17:43:30.513Z,96863.27
2018-03-24T17:45:58.044Z,96865.04
2018-03-24T17:48:25.698Z,96866.19
2018-03-24T17:50:53.232Z,96864.70
2018-03-24T17:53:20.682Z,96870.84
2018-03-24T17:55:48.267Z,96870.01
2018-03-24T17:58:15.776Z,96875.41
2018-03-24T18:00:43.887Z,96875.54
2018-03-24T18:03:11.419Z,96882.52
2018-03-24T18:05:39.469Z,96878.63
2018-03-24T18:08:07.327Z,96883.61
2018-03-24T18:10:35.179Z,96888.16
2018-03-24T18:13:03.123Z,96895.52
2018-03-24T18:15:30.940Z,96891.50
2018-03-24T18:17:58.517Z,96898.55
2018-03-24T18:20:26.021Z,96897.73
2018-03-24T18:22:53.584Z,96898.95
2018-03-24T18:25:21.068Z,96904.77
2018-03-24T18:27:48.658Z,96905.07
2018-03-24T18:30:17.770Z,96914.13
2018-03-24T18:32:47.682Z,96916.84
2018-03-24T18:35:17.977Z,96923.52
2018-03-24T18:37:46.057Z,96920.92
2018-03-24T18:40:14.824Z,96932.06
2018-03-24T18:42:47.896Z,96930.77
2018-03-24T18:45:19.006Z,96932.81
2018-03-24T18:47:48.418Z,96931.38
2018-03-24T18:50:20.725Z,96938.67
2018-03-24T18:53:02.592Z,96939.44
2018-03-24T18:55:31.226Z,96944.10
2018-03-24T18:57:58.683Z,96941.33
2018-03-24T19:00:26.587Z,96942.94
2018-03-24T19:02:54.055Z,96943.15
2018-03-24T19:05:21.496Z,96943.06
2018-03-24T19:07:48.954Z,96951.82
2018-03-24T19:10:16.493Z,96957.40
2018-03-24T19:12:43.994Z,96959.92
2018-03-24T19:15:12.435Z,96957.52
2018-03-24T19:17:39.913Z,96961.02
2018-03-24T19:20:07.407Z,96967.59
2018-03-24T19:22:34.823Z,96969.19
2018-03-24T19:25:02.444Z,96969.95
2018-03-24T19:27:29.943Z,96968.75
2018-03-24T19:29:57.466Z,96968.88
2018-03-24T19:32:24.959Z,96972.45
2018-03-24T19:34:52.474Z,96973.42
2018-03-24T19:37:20.021Z,96973.28
2018-03-24T19:39:47.513Z,96981.81
2018-03-24T19:42:14.989Z,96978.77
2018-03-24T19:44:42.464Z,96983.01
2018-03-24T19:47:09.911Z,96982.52
2018-03-24T19:49:37.407Z,96982.17
2018-03-24T19:52:04.887Z,96979.33
2018-03-24T19:54:32.378Z,96981.48
2018-03-24T19:56:59.836Z,96981.61
2018-03-24T19:59:27.295Z,96985.25
2018-03-24T20:01:55.524Z,96988.05
2018-03-24T20:04:23.158Z,96989.94
2018-03-24T20:06:50.604Z,96991.64
2018-03-24T20:09:18.107Z,96991.90
2018-03-24T20:11:45.567Z,96993.05
2018-03-24T20:14:13.051Z,96999.69
2018-03-24T20:16:40.511Z,96997.80
2018-03-24T20:19:08.022Z,96996.68
2018-03-24T20:21:35.564Z,96989.81
2018-03-24T20:24:03.214Z,96986.25
2018-03-24T20:26:30.656Z,96990.75
2018-03-24T20:28:58.113Z,97000.05
2018-03-24T20:31:25.577Z,96999.96
2018-03-24T20:33:53.028Z,96998.59
2018-03-24T20:36:20.467Z,97001.88
2018-03-24T20:38:47.963Z,97003.67
2018-03-24T20:41:15.427Z,97001.01
2018-03-24T20:43:42.956Z,97004.28
2018-03-24T20:46:10.413Z,97001.87
2018-03-24T20:48:37.854Z,96997.66
2018-03-24T20:51:05.310Z,97010.56
2018-03-24T20:53:32.771Z,97005.94
2018-03-24T20:56:00.268Z,97009.94
2018-03-24T20:58:28.088Z,97008.30
2018-03-24T21:00:55.590Z,97007.36
2018-03-24T21:03:23.035Z,97012.03
2018-03-24T21:05:50.499Z,97016.03
2018-03-24T21:08:17.958Z,97014.55
2018-03-24T21:10:45.411Z,97016.79
2018-03-24T21:13:12.915Z,97026.66
2018-03-24T21:15:40.324Z,97025.62
2018-03-24T21:18:08.319Z,97023.64
2018-03-24T21:20:35.775Z,97023.93
2018-03-24T21:23:03.242Z,97019.59
2018-03-24T21:25:30.804Z,97018.92
2018-03-24T21:27:59.078Z,97013.70
2018-03-24T21:30:26.566Z,97019.69
2018-03-24T21:32:54.008Z,97022.70
2018-03-24T21:35:21.463Z,97023.38
2018-03-24T21:37:48.921Z,97022.20
2018-03-24T21:40:16.381Z,97020.69
2018-03-24T21:42:43.831Z,97019.93
2018-03-24T21:45:11.259Z,97016.03
2018-03-24T21:47:38.731Z,97022.33
2018-03-24T21:50:06.193Z,97023.80
2018-03-24T21:52:33.641Z,97025.25
2018-03-24T21:55:01.086Z,97028.80
2018-03-24T21:57:28.560Z,97026.83
2018-03-24T21:59:55.999Z,97020.09
2018-03-24T22:02:23.448Z,97030.27
2018-03-24T22:04:50.889Z,97026.59
2018-03-24T22:07:18.346Z,97028.05
2018-03-24T22:09:45.796Z,97022.69
2018-03-24T22:12:13.240Z,97026.31
2018-03-24T22:14:40.690Z,97024.34
2018-03-24T22:17:08.135Z,97023.56
2018-03-24T22:19:35.594Z,97023.17
2018-03-24T22:22:03.044Z,97018.30
2018-03-24T22:24:30.522Z,97021.45
2018-03-24T22:26:58.315Z,97018.87
2018-03-24T22:29:26.167Z,97024.23
2018-03-24T22:31:53.798Z,97017.61
2018-03-24T22:34:21.425Z,97011.16
2018-03-24T22:36:48.934Z,97012.70
2018-03-24T22:39:16.501Z,97017.89
2018-03-24T22:41:43.975Z,97014.88
2018-03-24T22:44:11.409Z,97014.38
2018-03-24T22:46:38.856Z,97013.91
2018-03-24T22:49:06.295Z,97011.55
2018-03-24T22:51:33.809Z,97010.03
2018-03-24T22:54:01.434Z,97012.70
2018-03-24T22:56:29.044Z,97012.84
2018-03-24T22:58:56.519Z,97012.47
2018-03-24T23:01:23.950Z,97013.49
2018-03-24T23:03:51.733Z,97008.49
2018-03-24T23:06:19.167Z,97011.93
2018-03-24T23:08:46.621Z,97015.73
2018-03-24T23:11:15.769Z,97015.99
2018-03-24T23:13:45.963Z,97012.92
2018-03-24T23:16:16.524Z,97019.53
2018-03-24T23:18:44.090Z,97024.93
2018-03-24T23:21:13.588Z,97024.17
2018-03-24T23:23:41.076Z,97020.39
2018-03-24T23:26:08.525Z,97024.77
2018-03-24T23:28:35.970Z,97023.20
2018-03-24T23:31:03.414Z,97024.23
2018-03-24T23:33:30.863Z,97023.02
2018-03-24T23:35:58.312Z,97021.50
2018-03-24T23:38:25.759Z,97030.19
2018-03-24T23:40:53.203Z,97032.45
2018-03-24T23:43:20.699Z,97032.55
2018-03-24T23:45:48.153Z,97032.11
2018-03-24T23:48:15.610Z,97036.18
2018-03-24T23:50:43.050Z,97033.73
2018-03-24T23:53:10.572Z,97042.34
2018-03-24T23:55:38.030Z,97031.17
2018-03-24T23:58:05.963Z,97038.53
